sensor_id;sensor_type;location;lat;lon;timestamp;pressure;altitude;pressure_sealevel;temperature;humidity
19086;BME280;9675;51.538;6.728;2023-02-22T00:00:20;101201.19;;;9.52;100.00
19086;BME280;9675;51.538;6.728;2023-02-22T00:02:56;101205.44;;;9.52;100.00
19086;BME280;9675;51.538;6.728;2023-02-22T00:05:26;101207.00;;;9.50;100.00
19086;BME280;9675;51.538;6.728;2023-02-22T00:07:56;101214.81;;;9.51;100.00
19086;BME280;9675;51.538;6.728;2023-02-22T00:10:26;101212.94;;;9.49;100.00
19086;BME280;9675;51.538;6.728;2023-02-22T00:12:54;101214.63;;;9.48;100.00
19086;BME280;9675;51.538;6.728;2023-02-22T00:15:23;101210.31;;;9.47;100.00
19086;BME280;9675;51.538;6.728;2023-02-22T00:17:54;101205.84;;;9.45;100.00
19086;BME280;9675;51.538;6.728;2023-02-22T00:20:22;101211.72;;;9.42;100.00
19086;BME280;9675;51.538;6.728;2023-02-22T00:22:50;101207.38;;;9.41;100.00
19086;BME280;9675;51.538;6.728;2023-02-22T00:25:22;101208.06;;;9.38;100.00
19086;BME280;9675;51.538;6.728;2023-02-22T00:27:51;101209.66;;;9.36;100.00
19086;BME280;9675;51.538;6.728;2023-02-22T00:30:21;101202.63;;;9.34;100.00
19086;BME280;9675;51.538;6.728;2023-02-22T00:32:49;101199.00;;;9.30;100.00
19086;BME280;9675;51.538;6.728;2023-02-22T00:35:21;101195.44;;;9.28;100.00
19086;BME280;9675;51.538;6.728;2023-02-22T00:37:51;101198.75;;;9.26;100.00
19086;BME280;9675;51.538;6.728;2023-02-22T00:40:21;101189.16;;;9.23;100.00
19086;BME280;9675;51.538;6.728;2023-02-22T00:42:49;101191.66;;;9.22;100.00
19086;BME280;9675;51.538;6.728;2023-02-22T00:45:20;101192.34;;;9.19;100.00
19086;BME280;9675;51.538;6.728;2023-02-22T00:47:48;101191.28;;;9.16;100.00
19086;BME280;9675;51.538;6.728;2023-02-22T00:50:16;101182.47;;;9.12;100.00
19086;BME280;9675;51.538;6.728;2023-02-22T00:52:45;101173.81;;;9.10;100.00
19086;BME280;9675;51.538;6.728;2023-02-22T00:55:17;101176.28;;;9.09;100.00
19086;BME280;9675;51.538;6.728;2023-02-22T00:57:45;101177.00;;;9.06;100.00
19086;BME280;9675;51.538;6.728;2023-02-22T01:00:18;101176.09;;;9.06;100.00
19086;BME280;9675;51.538;6.728;2023-02-22T01:02:46;101171.66;;;9.03;100.00
19086;BME280;9675;51.538;6.728;2023-02-22T01:05:17;101182.63;;;9.01;100.00
19086;BME280;9675;51.538;6.728;2023-02-22T01:07:47;101172.16;;;8.98;100.00
19086;BME280;9675;51.538;6.728;2023-02-22T01:10:18;101171.09;;;8.94;100.00
19086;BME280;9675;51.538;6.728;2023-02-22T01:12:47;101175.97;;;8.89;100.00
19086;BME280;9675;51.538;6.728;2023-02-22T01:15:18;101167.09;;;8.84;100.00
19086;BME280;9675;51.538;6.728;2023-02-22T01:17:49;101177.16;;;8.81;100.00
19086;BME280;9675;51.538;6.728;2023-02-22T01:20:18;101176.19;;;8.79;100.00
19086;BME280;9675;51.538;6.728;2023-02-22T01:22:50;101169.88;;;8.74;100.00
19086;BME280;9675;51.538;6.728;2023-02-22T01:25:21;101168.00;;;8.72;100.00
19086;BME280;9675;51.538;6.728;2023-02-22T01:27:49;101165.25;;;8.69;100.00
19086;BME280;9675;51.538;6.728;2023-02-22T01:30:21;101167.59;;;8.66;100.00
19086;BME280;9675;51.538;6.728;2023-02-22T01:32:48;101167.72;;;8.67;100.00
19086;BME280;9675;51.538;6.728;2023-02-22T01:35:23;101168.13;;;8.60;100.00
19086;BME280;9675;51.538;6.728;2023-02-22T01:37:53;101159.44;;;8.58;100.00
19086;BME280;9675;51.538;6.728;2023-02-22T01:40:27;101162.69;;;8.56;100.00
19086;BME280;9675;51.538;6.728;2023-02-22T01:42:57;101148.69;;;8.50;100.00
19086;BME280;9675;51.538;6.728;2023-02-22T01:48:40;101141.50;;;8.45;100.00
19086;BME280;9675;51.538;6.728;2023-02-22T01:51:14;101134.41;;;8.41;100.00
19086;BME280;9675;51.538;6.728;2023-02-22T01:53:50;101131.66;;;8.38;100.00
19086;BME280;9675;51.538;6.728;2023-02-22T01:56:21;101131.44;;;8.35;100.00
19086;BME280;9675;51.538;6.728;2023-02-22T01:59:03;101126.03;;;8.30;100.00
19086;BME280;9675;51.538;6.728;2023-02-22T02:01:34;101128.50;;;8.29;100.00
19086;BME280;9675;51.538;6.728;2023-02-22T02:04:07;101127.38;;;8.25;100.00
19086;BME280;9675;51.538;6.728;2023-02-22T02:06:37;101118.72;;;8.23;100.00
19086;BME280;9675;51.538;6.728;2023-02-22T02:09:13;101113.28;;;8.19;100.00
19086;BME280;9675;51.538;6.728;2023-02-22T02:11:45;101115.78;;;8.17;100.00
19086;BME280;9675;51.538;6.728;2023-02-22T02:14:13;101114.66;;;8.13;100.00
19086;BME280;9675;51.538;6.728;2023-02-22T02:16:43;101103.22;;;8.08;100.00
19086;BME280;9675;51.538;6.728;2023-02-22T02:19:21;101097.94;;;8.05;100.00
19086;BME280;9675;51.538;6.728;2023-02-22T02:22:22;101108.97;;;8.04;100.00
19086;BME280;9675;51.538;6.728;2023-02-22T02:25:40;101097.75;;;8.02;100.00
19086;BME280;9675;51.538;6.728;2023-02-22T02:28:42;101105.34;;;8.01;100.00
19086;BME280;9675;51.538;6.728;2023-02-22T02:31:50;101103.44;;;7.98;100.00
19086;BME280;9675;51.538;6.728;2023-02-22T02:34:25;101096.47;;;7.96;100.00
19086;BME280;9675;51.538;6.728;2023-02-22T02:37:04;101096.16;;;7.91;100.00
19086;BME280;9675;51.538;6.728;2023-02-22T02:39:43;101088.38;;;7.90;100.00
19086;BME280;9675;51.538;6.728;2023-02-22T02:42:21;101103.66;;;7.88;100.00
19086;BME280;9675;51.538;6.728;2023-02-22T02:44:57;101097.56;;;7.86;100.00
19086;BME280;9675;51.538;6.728;2023-02-22T02:47:35;101097.34;;;7.83;100.00
19086;BME280;9675;51.538;6.728;2023-02-22T02:50:09;101086.00;;;7.80;100.00
19086;BME280;9675;51.538;6.728;2023-02-22T02:52:40;101086.72;;;7.77;100.00
19086;BME280;9675;51.538;6.728;2023-02-22T02:55:09;101089.19;;;7.76;100.00
19086;BME280;9675;51.538;6.728;2023-02-22T02:57:37;101083.94;;;7.74;100.00
19086;BME280;9675;51.538;6.728;2023-02-22T03:00:08;101079.53;;;7.72;100.00
19086;BME280;9675;51.538;6.728;2023-02-22T03:03:22;101078.53;;;7.69;100.00
19086;BME280;9675;51.538;6.728;2023-02-22T03:06:32;101066.19;;;7.64;100.00
19086;BME280;9675;51.538;6.728;2023-02-22T03:09:13;101071.31;;;7.64;100.00
19086;BME280;9675;51.538;6.728;2023-02-22T03:11:57;101065.19;;;7.62;100.00
19086;BME280;9675;51.538;6.728;2023-02-22T03:14:39;101066.69;;;7.58;100.00
19086;BME280;9675;51.538;6.728;2023-02-22T03:17:16;101059.50;;;7.53;100.00
19086;BME280;9675;51.538;6.728;2023-02-22T03:19:53;101060.97;;;7.49;100.00
19086;BME280;9675;51.538;6.728;2023-02-22T03:22:25;101059.00;;;7.45;100.00
19086;BME280;9675;51.538;6.728;2023-02-22T03:25:02;101063.03;;;7.42;100.00
19086;BME280;9675;51.538;6.728;2023-02-22T03:27:39;101057.81;;;7.40;100.00
19086;BME280;9675;51.538;6.728;2023-02-22T03:30:15;101055.94;;;7.38;100.00
19086;BME280;9675;51.538;6.728;2023-02-22T03:32:50;101054.75;;;7.33;100.00
19086;BME280;9675;51.538;6.728;2023-02-22T03:35:24;101053.66;;;7.29;100.00
19086;BME280;9675;51.538;6.728;2023-02-22T03:38:00;101045.88;;;7.28;100.00
19086;BME280;9675;51.538;6.728;2023-02-22T03:40:32;101053.56;;;7.28;100.00
19086;BME280;9675;51.538;6.728;2023-02-22T03:43:06;101047.66;;;7.29;100.00
19086;BME280;9675;51.538;6.728;2023-02-22T03:45:38;101053.38;;;7.24;100.00
19086;BME280;9675;51.538;6.728;2023-02-22T03:48:19;101053.16;;;7.21;100.00
19086;BME280;9675;51.538;6.728;2023-02-22T03:50:49;101042.81;;;7.20;100.00
19086;BME280;9675;51.538;6.728;2023-02-22T03:53:18;101045.38;;;7.20;100.00
19086;BME280;9675;51.538;6.728;2023-02-22T03:55:49;101052.25;;;7.21;100.00
19086;BME280;9675;51.538;6.728;2023-02-22T03:58:21;101060.75;;;7.20;100.00
19086;BME280;9675;51.538;6.728;2023-02-22T04:00:50;101049.63;;;7.19;100.00
19086;BME280;9675;51.538;6.728;2023-02-22T04:03:18;101053.94;;;7.20;100.00
19086;BME280;9675;51.538;6.728;2023-02-22T04:05:46;101059.03;;;7.20;100.00
19086;BME280;9675;51.538;6.728;2023-02-22T04:08:15;101064.09;;;7.19;100.00
19086;BME280;9675;51.538;6.728;2023-02-22T04:10:42;101064.97;;;7.19;100.00
19086;BME280;9675;51.538;6.728;2023-02-22T04:13:09;101071.84;;;7.20;100.00
19086;BME280;9675;51.538;6.728;2023-02-22T04:15:36;101066.72;;;7.20;100.00
19086;BME280;9675;51.538;6.728;2023-02-22T04:18:04;101064.88;;;7.18;100.00
19086;BME280;9675;51.538;6.728;2023-02-22T04:20:31;101070.88;;;7.18;100.00
19086;BME280;9675;51.538;6.728;2023-02-22T04:22:59;101063.19;;;7.18;100.00
19086;BME280;9675;51.538;6.728;2023-02-22T04:25:28;101061.41;;;7.17;100.00
19086;BME280;9675;51.538;6.728;2023-02-22T04:27:55;101058.84;;;7.17;100.00
19086;BME280;9675;51.538;6.728;2023-02-22T04:30:22;101049.63;;;7.19;100.00
19086;BME280;9675;51.538;6.728;2023-02-22T04:32:49;101044.50;;;7.19;100.00
19086;BME280;9675;51.538;6.728;2023-02-22T04:35:17;101039.38;;;7.19;100.00
19086;BME280;9675;51.538;6.728;2023-02-22T04:37:43;101045.38;;;7.20;100.00
19086;BME280;9675;51.538;6.728;2023-02-22T04:40:11;101028.25;;;7.19;100.00
19086;BME280;9675;51.538;6.728;2023-02-22T04:42:39;101030.69;;;7.17;100.00
19086;BME280;9675;51.538;6.728;2023-02-22T04:45:10;101022.91;;;7.16;100.00
19086;BME280;9675;51.538;6.728;2023-02-22T04:47:37;101017.00;;;7.17;100.00
19086;BME280;9675;51.538;6.728;2023-02-22T04:50:05;101022.91;;;7.16;100.00
19086;BME280;9675;51.538;6.728;2023-02-22T04:52:33;101018.66;;;7.16;100.00
19086;BME280;9675;51.538;6.728;2023-02-22T04:55:00;101013.53;;;7.16;100.00
19086;BME280;9675;51.538;6.728;2023-02-22T04:57:27;101019.44;;;7.15;100.00
19086;BME280;9675;51.538;6.728;2023-02-22T04:59:56;101015.13;;;7.14;100.00
19086;BME280;9675;51.538;6.728;2023-02-22T05:02:23;101008.91;;;7.11;100.00
19086;BME280;9675;51.538;6.728;2023-02-22T05:04:50;101010.59;;;7.10;100.00
19086;BME280;9675;51.538;6.728;2023-02-22T05:07:17;101013.13;;;7.10;100.00
19086;BME280;9675;51.538;6.728;2023-02-22T05:09:44;101009.63;;;7.08;100.00
19086;BME280;9675;51.538;6.728;2023-02-22T05:12:11;101006.28;;;7.09;100.00
19086;BME280;9675;51.538;6.728;2023-02-22T05:14:38;101004.50;;;7.08;100.00
19086;BME280;9675;51.538;6.728;2023-02-22T05:17:07;100997.59;;;7.07;100.00
19086;BME280;9675;51.538;6.728;2023-02-22T05:19:34;101004.50;;;7.08;100.00
19086;BME280;9675;51.538;6.728;2023-02-22T05:22:02;101000.94;;;7.06;100.00
19086;BME280;9675;51.538;6.728;2023-02-22T05:24:30;100995.81;;;7.06;100.00
19086;BME280;9675;51.538;6.728;2023-02-22T05:26:57;100990.69;;;7.06;100.00
19086;BME280;9675;51.538;6.728;2023-02-22T05:29:25;100991.59;;;7.07;100.00
19086;BME280;9675;51.538;6.728;2023-02-22T05:31:52;100995.03;;;7.07;100.00
19086;BME280;9675;51.538;6.728;2023-02-22T05:34:20;100994.31;;;7.10;100.00
19086;BME280;9675;51.538;6.728;2023-02-22T05:36:47;100995.22;;;7.10;100.00
19086;BME280;9675;51.538;6.728;2023-02-22T05:39:14;100991.88;;;7.11;100.00
19086;BME280;9675;51.538;6.728;2023-02-22T05:41:41;100984.19;;;7.11;100.00
19086;BME280;9675;51.538;6.728;2023-02-22T05:44:08;100987.75;;;7.13;100.00
19086;BME280;9675;51.538;6.728;2023-02-22T05:46:35;100987.75;;;7.13;100.00
19086;BME280;9675;51.538;6.728;2023-02-22T05:49:02;100986.16;;;7.15;100.00
19086;BME280;9675;51.538;6.728;2023-02-22T05:51:31;100984.41;;;7.14;100.00
19086;BME280;9675;51.538;6.728;2023-02-22T05:53:59;100980.97;;;7.14;100.00
19086;BME280;9675;51.538;6.728;2023-02-22T05:56:28;100984.41;;;7.14;100.00
19086;BME280;9675;51.538;6.728;2023-02-22T05:58:56;100979.28;;;7.14;100.00
19086;BME280;9675;51.538;6.728;2023-02-22T06:01:24;100982.81;;;7.16;100.00
19086;BME280;9675;51.538;6.728;2023-02-22T06:03:52;100981.03;;;7.15;100.00
19086;BME280;9675;51.538;6.728;2023-02-22T06:06:20;100991.28;;;7.15;100.00
19086;BME280;9675;51.538;6.728;2023-02-22T06:08:48;100989.53;;;7.14;100.00
19086;BME280;9675;51.538;6.728;2023-02-22T06:11:15;100975.84;;;7.14;100.00
19086;BME280;9675;51.538;6.728;2023-02-22T06:13:49;100976.63;;;7.13;100.00
19086;BME280;9675;51.538;6.728;2023-02-22T06:16:16;100980.66;;;7.09;100.00
19086;BME280;9675;51.538;6.728;2023-02-22T06:18:43;100974.53;;;7.07;100.00
19086;BME280;9675;51.538;6.728;2023-02-22T06:21:10;100967.66;;;7.06;100.00
19086;BME280;9675;51.538;6.728;2023-02-22T06:23:37;100970.22;;;7.06;100.00
19086;BME280;9675;51.538;6.728;2023-02-22T06:26:06;100967.53;;;7.05;100.00
19086;BME280;9675;51.538;6.728;2023-02-22T06:28:33;100966.69;;;7.04;100.00
19086;BME280;9675;51.538;6.728;2023-02-22T06:31:00;100971.81;;;7.04;100.00
19086;BME280;9675;51.538;6.728;2023-02-22T06:33:27;100966.47;;;7.01;100.00
19086;BME280;9675;51.538;6.728;2023-02-22T06:35:54;100966.47;;;7.01;100.00
19086;BME280;9675;51.538;6.728;2023-02-22T06:38:22;100962.94;;;6.99;100.00
19086;BME280;9675;51.538;6.728;2023-02-22T06:40:50;100964.69;;;7.00;100.00
19086;BME280;9675;51.538;6.728;2023-02-22T06:43:19;100964.00;;;7.03;100.00
19086;BME280;9675;51.538;6.728;2023-02-22T06:45:46;100971.69;;;7.03;100.00
19086;BME280;9675;51.538;6.728;2023-02-22T06:48:13;100963.91;;;7.01;100.00
19086;BME280;9675;51.538;6.728;2023-02-22T06:50:40;100960.44;;;7.01;100.00
19086;BME280;9675;51.538;6.728;2023-02-22T06:53:07;100955.34;;;7.01;100.00
19086;BME280;9675;51.538;6.728;2023-02-22T06:55:35;100962.13;;;7.00;100.00
19086;BME280;9675;51.538;6.728;2023-02-22T06:58:03;100956.03;;;6.98;100.00
19086;BME280;9675;51.538;6.728;2023-02-22T07:00:32;100957.72;;;6.98;100.00
19086;BME280;9675;51.538;6.728;2023-02-22T07:03:00;100964.69;;;7.00;100.00
19086;BME280;9675;51.538;6.728;2023-02-22T07:05:29;100961.22;;;7.00;100.00
19086;BME280;9675;51.538;6.728;2023-02-22T07:08:03;100961.94;;;6.97;100.00
19086;BME280;9675;51.538;6.728;2023-02-22T07:10:33;100962.72;;;6.96;100.00
19086;BME280;9675;51.538;6.728;2023-02-22T07:13:02;100967.84;;;6.96;100.00
19086;BME280;9675;51.538;6.728;2023-02-22T07:15:33;100972.94;;;6.96;100.00
19086;BME280;9675;51.538;6.728;2023-02-22T07:18:01;100965.28;;;6.96;100.00
19086;BME280;9675;51.538;6.728;2023-02-22T07:20:30;100965.28;;;6.96;100.00
19086;BME280;9675;51.538;6.728;2023-02-22T07:22:57;100958.59;;;6.98;100.00
19086;BME280;9675;51.538;6.728;2023-02-22T07:25:24;100957.59;;;6.96;100.00
19086;BME280;9675;51.538;6.728;2023-02-22T07:27:51;100961.16;;;6.98;100.00
19086;BME280;9675;51.538;6.728;2023-02-22T07:30:21;100958.47;;;6.97;100.00
19086;BME280;9675;51.538;6.728;2023-02-22T07:32:53;100952.59;;;6.98;100.00
19086;BME280;9675;51.538;6.728;2023-02-22T07:35:23;100960.94;;;6.95;100.00
19086;BME280;9675;51.538;6.728;2023-02-22T07:37:51;100951.69;;;6.97;100.00
19086;BME280;9675;51.538;6.728;2023-02-22T07:40:19;100956.03;;;6.98;100.00
19086;BME280;9675;51.538;6.728;2023-02-22T07:42:54;100950.91;;;6.98;100.00
19086;BME280;9675;51.538;6.728;2023-02-22T07:45:26;100950.91;;;6.98;100.00
19086;BME280;9675;51.538;6.728;2023-02-22T07:47:56;100951.00;;;7.00;100.00
19086;BME280;9675;51.538;6.728;2023-02-22T07:50:24;100949.31;;;7.00;100.00
19086;BME280;9675;51.538;6.728;2023-02-22T07:52:55;100949.31;;;7.00;100.00
19086;BME280;9675;51.538;6.728;2023-02-22T07:55:24;100941.63;;;7.00;100.00
19086;BME280;9675;51.538;6.728;2023-02-22T07:57:55;100944.19;;;7.00;100.00
19086;BME280;9675;51.538;6.728;2023-02-22T08:00:25;100945.09;;;7.01;100.00
19086;BME280;9675;51.538;6.728;2023-02-22T08:02:54;100936.53;;;7.00;100.00
19086;BME280;9675;51.538;6.728;2023-02-22T08:05:25;100935.56;;;6.98;100.00
19086;BME280;9675;51.538;6.728;2023-02-22T08:07:52;100936.53;;;7.00;100.00
19086;BME280;9675;51.538;6.728;2023-02-22T08:10:22;100939.97;;;7.01;100.00
19086;BME280;9675;51.538;6.728;2023-02-22T08:12:51;100936.53;;;7.00;100.00
19086;BME280;9675;51.538;6.728;2023-02-22T08:15:22;100934.78;;;6.99;100.00
19086;BME280;9675;51.538;6.728;2023-02-22T08:17:50;100928.84;;;7.00;100.00
19086;BME280;9675;51.538;6.728;2023-02-22T08:20:19;100932.41;;;7.02;100.00
19086;BME280;9675;51.538;6.728;2023-02-22T08:22:47;100929.06;;;7.03;100.00
19086;BME280;9675;51.538;6.728;2023-02-22T08:25:16;100925.72;;;7.04;100.00
19086;BME280;9675;51.538;6.728;2023-02-22T08:27:44;100934.25;;;7.05;100.00
19086;BME280;9675;51.538;6.728;2023-02-22T08:30:15;100922.34;;;7.05;100.00
19086;BME280;9675;51.538;6.728;2023-02-22T08:32:44;100919.91;;;7.07;100.00
19086;BME280;9675;51.538;6.728;2023-02-22T08:35:11;100916.56;;;7.08;100.00
19086;BME280;9675;51.538;6.728;2023-02-22T08:37:43;100920.97;;;7.10;100.00
19086;BME280;9675;51.538;6.728;2023-02-22T08:40:12;100922.75;;;7.11;100.00
19086;BME280;9675;51.538;6.728;2023-02-22T08:42:39;100926.31;;;7.13;100.00
19086;BME280;9675;51.538;6.728;2023-02-22T08:45:09;100930.81;;;7.17;100.00
19086;BME280;9675;51.538;6.728;2023-02-22T08:47:38;100920.69;;;7.19;100.00
19086;BME280;9675;51.538;6.728;2023-02-22T08:50:08;100918.19;;;7.20;100.00
19086;BME280;9675;51.538;6.728;2023-02-22T08:52:35;100920.09;;;7.23;100.00
19086;BME280;9675;51.538;6.728;2023-02-22T08:55:05;100918.59;;;7.26;100.00
19086;BME280;9675;51.538;6.728;2023-02-22T08:57:32;100920.56;;;7.31;100.00
19086;BME280;9675;51.538;6.728;2023-02-22T08:59:59;100919.00;;;7.33;100.00
19086;BME280;9675;51.538;6.728;2023-02-22T09:02:27;100926.00;;;7.35;100.00
19086;BME280;9675;51.538;6.728;2023-02-22T09:04:54;100918.31;;;7.35;100.00
19086;BME280;9675;51.538;6.728;2023-02-22T09:07:21;100916.94;;;7.40;100.00
19086;BME280;9675;51.538;6.728;2023-02-22T09:09:49;100915.34;;;7.42;100.00
19086;BME280;9675;51.538;6.728;2023-02-22T09:12:17;100909.53;;;7.45;100.00
19086;BME280;9675;51.538;6.728;2023-02-22T09:14:44;100912.28;;;7.48;100.00
19086;BME280;9675;51.538;6.728;2023-02-22T09:17:11;100908.31;;;7.53;100.00
19086;BME280;9675;51.538;6.728;2023-02-22T09:19:38;100913.72;;;7.57;100.00
19086;BME280;9675;51.538;6.728;2023-02-22T09:22:05;100910.47;;;7.60;100.00
19086;BME280;9675;51.538;6.728;2023-02-22T09:24:32;100908.09;;;7.63;100.00
19086;BME280;9675;51.538;6.728;2023-02-22T09:27:00;100909.28;;;7.68;100.00
19086;BME280;9675;51.538;6.728;2023-02-22T09:29:30;100905.25;;;7.72;100.00
19086;BME280;9675;51.538;6.728;2023-02-22T09:31:57;100908.88;;;7.75;100.00
19086;BME280;9675;51.538;6.728;2023-02-22T09:34:24;100900.56;;;7.79;100.00
19086;BME280;9675;51.538;6.728;2023-02-22T09:36:55;100899.97;;;7.83;100.00
19086;BME280;9675;51.538;6.728;2023-02-22T09:39:23;100896.81;;;7.87;100.00
19086;BME280;9675;51.538;6.728;2023-02-22T09:42:02;100900.72;;;7.95;100.00
19086;BME280;9675;51.538;6.728;2023-02-22T09:44:43;100895.06;;;8.01;100.00
19086;BME280;9675;51.538;6.728;2023-02-22T09:47:16;100896.22;;;8.06;100.00
19086;BME280;9675;51.538;6.728;2023-02-22T09:49:57;100888.81;;;8.10;100.00
19086;BME280;9675;51.538;6.728;2023-02-22T09:52:31;100889.19;;;8.17;100.00
19086;BME280;9675;51.538;6.728;2023-02-22T09:55:07;100889.56;;;8.23;100.00
19086;BME280;9675;51.538;6.728;2023-02-22T09:57:40;100884.78;;;8.29;100.00
19086;BME280;9675;51.538;6.728;2023-02-22T10:00:18;100882.59;;;8.35;100.00
19086;BME280;9675;51.538;6.728;2023-02-22T10:02:51;100878.63;;;8.40;100.00
19086;BME280;9675;51.538;6.728;2023-02-22T10:05:31;100870.38;;;8.45;100.00
19086;BME280;9675;51.538;6.728;2023-02-22T10:08:05;100882.06;;;8.55;100.00
19086;BME280;9675;51.538;6.728;2023-02-22T10:10:40;100871.38;;;8.62;100.00
19086;BME280;9675;51.538;6.728;2023-02-22T10:13:26;100868.44;;;8.71;100.00
19086;BME280;9675;51.538;6.728;2023-02-22T10:16:01;100864.53;;;8.77;100.00
19086;BME280;9675;51.538;6.728;2023-02-22T10:18:50;100865.88;;;8.85;100.00
19086;BME280;9675;51.538;6.728;2023-02-22T10:21:36;100862.03;;;8.93;100.00
19086;BME280;9675;51.538;6.728;2023-02-22T10:24:19;100867.69;;;9.03;100.00
19086;BME280;9675;51.538;6.728;2023-02-22T10:26:53;100857.94;;;9.12;100.00
19086;BME280;9675;51.538;6.728;2023-02-22T10:29:29;100861.06;;;9.22;100.00
19086;BME280;9675;51.538;6.728;2023-02-22T10:32:03;100854.69;;;9.30;100.00
19086;BME280;9675;51.538;6.728;2023-02-22T10:34:38;100847.38;;;9.38;100.00
19086;BME280;9675;51.538;6.728;2023-02-22T10:37:23;100850.38;;;9.46;100.00
19086;BME280;9675;51.538;6.728;2023-02-22T10:39:57;100842.34;;;9.56;100.00
19086;BME280;9675;51.538;6.728;2023-02-22T10:42:30;100837.78;;;9.66;100.00
19086;BME280;9675;51.538;6.728;2023-02-22T10:44:57;100840.91;;;9.77;100.00
19086;BME280;9675;51.538;6.728;2023-02-22T10:47:26;100835.31;;;9.84;100.00
19086;BME280;9675;51.538;6.728;2023-02-22T10:49:58;100839.28;;;9.95;100.00
19086;BME280;9675;51.538;6.728;2023-02-22T10:52:30;100829.41;;;10.03;100.00
19086;BME280;9675;51.538;6.728;2023-02-22T10:54:59;100828.97;;;10.11;100.00
19086;BME280;9675;51.538;6.728;2023-02-22T10:57:31;100821.78;;;10.20;100.00
19086;BME280;9675;51.538;6.728;2023-02-22T11:00:15;100816.28;;;10.31;100.00
19086;BME280;9675;51.538;6.728;2023-02-22T11:02:53;100812.41;;;10.39;100.00
19086;BME280;9675;51.538;6.728;2023-02-22T11:05:31;100814.47;;;10.46;100.00
19086;BME280;9675;51.538;6.728;2023-02-22T11:08:22;100810.66;;;10.55;100.00
19086;BME280;9675;51.538;6.728;2023-02-22T11:10:53;100811.97;;;10.65;100.00
19086;BME280;9675;51.538;6.728;2023-02-22T11:13:27;100811.53;;;10.74;100.00
19086;BME280;9675;51.538;6.728;2023-02-22T11:15:58;100808.47;;;10.81;100.00
19086;BME280;9675;51.538;6.728;2023-02-22T11:18:32;100805.50;;;10.91;100.00
19086;BME280;9675;51.538;6.728;2023-02-22T11:21:04;100798.13;;;10.98;100.00
19086;BME280;9675;51.538;6.728;2023-02-22T11:23:33;100799.47;;;11.08;100.00
19086;BME280;9675;51.538;6.728;2023-02-22T11:26:06;100795.59;;;11.18;100.00
19086;BME280;9675;51.538;6.728;2023-02-22T11:28:36;100793.56;;;11.30;100.00
19086;BME280;9675;51.538;6.728;2023-02-22T11:31:17;100793.13;;;11.38;100.00
19086;BME280;9675;51.538;6.728;2023-02-22T11:33:53;100788.28;;;11.46;100.00
19086;BME280;9675;51.538;6.728;2023-02-22T11:36:34;100792.25;;;11.57;100.00
19086;BME280;9675;51.538;6.728;2023-02-22T11:39:04;100784.88;;;11.65;100.00
19086;BME280;9675;51.538;6.728;2023-02-22T11:41:35;100788.69;;;11.73;100.00
19086;BME280;9675;51.538;6.728;2023-02-22T11:44:21;100779.53;;;11.79;100.00
19086;BME280;9675;51.538;6.728;2023-02-22T11:46:59;100784.19;;;11.88;100.00
19086;BME280;9675;51.538;6.728;2023-02-22T11:49:37;100784.53;;;11.96;100.00
19086;BME280;9675;51.538;6.728;2023-02-22T11:52:16;100778.88;;;12.04;100.00
19086;BME280;9675;51.538;6.728;2023-02-22T11:55:12;100775.84;;;12.14;100.00
19086;BME280;9675;51.538;6.728;2023-02-22T11:58:02;100770.25;;;12.24;100.00
19086;BME280;9675;51.538;6.728;2023-02-22T12:00:49;100767.22;;;12.34;100.00
19086;BME280;9675;51.538;6.728;2023-02-22T12:03:37;100757.16;;;12.41;100.00
19086;BME280;9675;51.538;6.728;2023-02-22T12:06:31;100759.44;;;12.54;100.00
19086;BME280;9675;51.538;6.728;2023-02-22T12:09:12;100761.50;;;12.62;100.00
19086;BME280;9675;51.538;6.728;2023-02-22T12:11:56;100764.34;;;12.70;100.00
19086;BME280;9675;51.538;6.728;2023-02-22T12:14:35;100755.28;;;12.80;100.00
19086;BME280;9675;51.538;6.728;2023-02-22T12:17:22;100757.41;;;12.90;100.00
19086;BME280;9675;51.538;6.728;2023-02-22T12:19:57;100758.34;;;12.92;100.00
19086;BME280;9675;51.538;6.728;2023-02-22T12:22:37;100761.81;;;12.92;100.00
19086;BME280;9675;51.538;6.728;2023-02-22T12:25:17;100764.72;;;13.01;100.00
19086;BME280;9675;51.538;6.728;2023-02-22T12:27:52;100758.97;;;13.08;100.00
19086;BME280;9675;51.538;6.728;2023-02-22T12:30:25;100745.53;;;13.17;100.00
19086;BME280;9675;51.538;6.728;2023-02-22T12:32:57;100758.63;;;13.22;100.00
19086;BME280;9675;51.538;6.728;2023-02-22T12:35:27;100750.38;;;13.30;100.00
19086;BME280;9675;51.538;6.728;2023-02-22T12:38:12;100749.75;;;13.37;100.00
19086;BME280;9675;51.538;6.728;2023-02-22T12:40:49;100751.84;;;13.47;100.00
19086;BME280;9675;51.538;6.728;2023-02-22T12:43:23;100748.56;;;13.51;100.00
19086;BME280;9675;51.538;6.728;2023-02-22T12:45:58;100745.31;;;13.57;100.00
19086;BME280;9675;51.538;6.728;2023-02-22T12:48:37;100741.94;;;13.59;100.00
19086;BME280;9675;51.538;6.728;2023-02-22T12:51:22;100737.88;;;13.66;100.00
19086;BME280;9675;51.538;6.728;2023-02-22T12:54:03;100740.72;;;13.74;100.00
19086;BME280;9675;51.538;6.728;2023-02-22T12:56:40;100746.09;;;13.80;100.00
19086;BME280;9675;51.538;6.728;2023-02-22T12:59:17;100747.22;;;13.86;100.00
19086;BME280;9675;51.538;6.728;2023-02-22T13:01:52;100746.41;;;13.89;100.00
19086;BME280;9675;51.538;6.728;2023-02-22T13:04:20;100746.47;;;13.90;100.00
19086;BME280;9675;51.538;6.728;2023-02-22T13:07:01;100745.56;;;13.88;100.00
19086;BME280;9675;51.538;6.728;2023-02-22T13:12:52;100743.53;;;14.05;100.00
19086;BME280;9675;51.538;6.728;2023-02-22T13:15:29;100738.50;;;14.10;100.00
19086;BME280;9675;51.538;6.728;2023-02-22T13:18:11;100743.94;;;14.17;100.00
19086;BME280;9675;51.538;6.728;2023-02-22T13:20:47;100731.94;;;14.19;100.00
19086;BME280;9675;51.538;6.728;2023-02-22T13:23:31;100730.41;;;14.26;98.06
19086;BME280;9675;51.538;6.728;2023-02-22T13:26:14;100730.63;;;14.32;98.43
19086;BME280;9675;51.538;6.728;2023-02-22T13:28:51;100727.97;;;14.30;90.22
19086;BME280;9675;51.538;6.728;2023-02-22T13:31:52;100726.63;;;14.40;91.14